Time;durP1;ratioP1;P1;durP2;ratioP2;P2;SDS_P1;SDS_P2;PMS_P1;PMS_P2;Temp;Humidity;BMP_temperature;BMP_pressure;BME280_temperature;BME280_humidity;BME280_pressure;Samples;Min_cycle;Max_cycle;Signal;HPM_P1;HPM_P2
2024/02/22 00:01:42;;;;;;;1.17;0.55;;;;;;;18.68;48.47;99846.06;4999182;28;20511;-70
2024/02/22 00:04:08;;;;;;;1.08;0.47;;;;;;;18.74;48.46;99839.34;5000724;28;20113;-70
2024/02/22 00:06:34;;;;;;;1.17;0.70;;;;;;;18.77;48.74;99851.41;4996984;28;20038;-70
2024/02/22 00:08:59;;;;;;;1.10;0.60;;;;;;;18.61;48.58;99820.44;4999222;28;20030;-70
2024/02/22 00:11:24;;;;;;;1.63;0.70;;;;;;;18.54;48.74;99809.66;5000638;28;20037;-70
2024/02/22 00:13:50;;;;;;;1.13;0.60;;;;;;;18.70;48.65;99835.34;4999323;28;20442;-70
2024/02/22 00:16:16;;;;;;;1.67;0.70;;;;;;;18.71;48.65;99834.38;4980183;28;20480;-69
2024/02/22 00:18:41;;;;;;;1.40;0.70;;;;;;;18.62;48.76;99816.81;4998485;28;20108;-69
2024/02/22 00:21:08;;;;;;;1.55;0.70;;;;;;;18.60;48.85;99808.25;4999927;28;20723;-69
2024/02/22 00:23:34;;;;;;;0.50;0.50;;;;;;;18.65;48.56;99808.59;4999691;28;20647;-69
2024/02/22 00:25:59;;;;;;;1.08;0.50;;;;;;;18.61;49.11;99799.31;4996979;28;20121;-70
2024/02/22 00:28:24;;;;;;;1.77;0.60;;;;;;;18.57;48.80;99796.16;4999929;28;20661;-69
2024/02/22 00:30:50;;;;;;;1.05;0.57;;;;;;;18.51;48.75;99770.38;4998936;28;20030;-70
2024/02/22 00:33:15;;;;;;;1.55;0.60;;;;;;;18.49;48.79;99775.00;4982875;28;20034;-69
2024/02/22 00:35:40;;;;;;;1.17;0.70;;;;;;;18.64;48.85;99791.94;4999181;28;20454;-70
2024/02/22 00:38:05;;;;;;;0.63;0.52;;;;;;;18.56;48.89;99776.03;5000431;28;20476;-70
2024/02/22 00:40:32;;;;;;;1.13;0.60;;;;;;;18.54;48.68;99770.09;5000374;28;20450;-70
2024/02/22 00:42:57;;;;;;;2.60;0.70;;;;;;;18.59;48.66;99780.19;4999090;28;20487;-70
2024/02/22 00:45:22;;;;;;;1.00;0.50;;;;;;;18.55;48.59;99774.38;4999903;28;20037;-69
2024/02/22 00:47:47;;;;;;;1.15;0.70;;;;;;;18.45;48.83;99752.53;4999796;28;20537;-69
2024/02/22 00:50:13;;;;;;;1.90;0.50;;;;;;;18.57;49.09;99771.59;4999559;28;20075;-70
2024/02/22 00:52:38;;;;;;;1.15;0.50;;;;;;;18.57;48.72;99764.50;4981899;28;20646;-69
2024/02/22 00:55:04;;;;;;;1.08;0.60;;;;;;;18.55;48.91;99760.34;5000001;28;20052;-69
2024/02/22 00:57:29;;;;;;;0.85;0.50;;;;;;;18.57;48.88;99763.69;4981554;28;20581;-70
2024/02/22 00:59:55;;;;;;;1.10;0.57;;;;;;;18.58;48.91;99767.97;4999736;28;20057;-70
2024/02/22 01:02:21;;;;;;;0.98;0.57;;;;;;;18.57;48.83;99756.59;4998546;28;20042;-70
2024/02/22 01:04:46;;;;;;;1.35;0.60;;;;;;;18.54;48.79;99748.16;4999262;28;20030;-69
2024/02/22 01:07:12;;;;;;;1.15;0.60;;;;;;;18.52;49.10;99744.81;4999575;28;20045;-69
2024/02/22 01:09:37;;;;;;;1.45;0.70;;;;;;;18.44;49.13;99735.06;4999852;28;20057;-69
2024/02/22 01:12:02;;;;;;;0.70;0.60;;;;;;;18.36;48.91;99720.00;4981013;28;20867;-70
2024/02/22 01:14:28;;;;;;;1.08;0.65;;;;;;;18.40;48.87;99721.34;5000022;28;20033;-70
2024/02/22 01:16:53;;;;;;;1.05;0.50;;;;;;;18.52;48.96;99744.81;4998988;28;20810;-70
2024/02/22 01:19:18;;;;;;;1.27;0.75;;;;;;;18.36;49.09;99717.34;4999605;28;20867;-70
2024/02/22 01:21:44;;;;;;;1.45;0.65;;;;;;;18.44;49.14;99730.59;4998909;28;20124;-69
2024/02/22 01:24:10;;;;;;;1.20;0.68;;;;;;;18.49;48.98;99741.53;4999672;28;20038;-69
2024/02/22 01:26:35;;;;;;;1.00;0.50;;;;;;;18.43;48.98;99723.66;4998510;28;20484;-69
2024/02/22 01:29:00;;;;;;;1.00;0.60;;;;;;;18.45;49.22;99729.63;4999239;28;20034;-70
2024/02/22 01:31:25;;;;;;;1.02;0.60;;;;;;;18.45;49.08;99727.00;4999609;28;20033;-69
2024/02/22 01:33:51;;;;;;;1.30;0.50;;;;;;;18.38;49.12;99715.38;4998845;28;20046;-69
2024/02/22 01:36:17;;;;;;;1.38;0.50;;;;;;;18.46;49.27;99725.19;4998687;28;20052;-69
2024/02/22 01:38:43;;;;;;;1.45;0.63;;;;;;;18.44;49.12;99720.06;4999520;28;20045;-70
2024/02/22 01:41:08;;;;;;;1.15;0.57;;;;;;;18.40;49.29;99715.22;4998857;28;20030;-70
2024/02/22 01:43:34;;;;;;;0.85;0.50;;;;;;;18.44;49.49;99721.88;4999386;28;20444;-69
2024/02/22 01:46:01;;;;;;;1.40;0.60;;;;;;;18.44;48.75;99706.03;4998834;28;20053;-69
2024/02/22 01:48:27;;;;;;;0.82;0.50;;;;;;;18.43;49.16;99717.56;4999218;28;20064;-70
2024/02/22 01:50:53;;;;;;;0.98;0.50;;;;;;;18.34;49.16;99698.22;4998251;28;20113;-70
2024/02/22 01:53:20;;;;;;;0.88;0.60;;;;;;;18.41;49.39;99707.16;4998266;28;20480;-70
2024/02/22 01:55:47;;;;;;;0.88;0.50;;;;;;;18.40;49.28;99702.03;4981486;28;20048;-70
2024/02/22 01:58:13;;;;;;;1.23;0.57;;;;;;;18.40;49.26;99704.69;4981789;28;20074;-70
2024/02/22 02:00:41;;;;;;;1.25;0.60;;;;;;;18.38;49.23;99698.75;4980805;28;20085;-69
2024/02/22 02:03:06;;;;;;;1.00;0.50;;;;;;;18.39;49.35;99698.59;4997266;28;20034;-69
2024/02/22 02:05:32;;;;;;;1.05;0.60;;;;;;;18.39;49.09;99695.09;4999235;28;20511;-69
2024/02/22 02:07:57;;;;;;;0.60;0.50;;;;;;;18.31;49.31;99683.53;4997328;28;20037;-69
2024/02/22 02:10:23;;;;;;;0.90;0.47;;;;;;;18.30;49.34;99681.84;4981788;28;20053;-70
2024/02/22 02:12:48;;;;;;;1.10;0.50;;;;;;;18.37;49.43;99691.81;4998849;28;20022;-70
2024/02/22 02:15:13;;;;;;;0.75;0.50;;;;;;;18.34;49.53;99686.84;4998717;28;20041;-70
2024/02/22 02:17:40;;;;;;;1.40;0.50;;;;;;;18.29;49.40;99672.31;4997835;28;20053;-70
2024/02/22 02:20:09;;;;;;;1.38;0.63;;;;;;;18.28;49.32;99670.66;4979124;28;20038;-69
2024/02/22 02:22:59;;;;;;;0.88;0.60;;;;;;;18.37;49.51;99687.34;5000315;28;20038;-69
2024/02/22 02:25:25;;;;;;;1.67;0.52;;;;;;;18.34;49.53;99673.66;5002122;28;20029;-70
2024/02/22 02:27:52;;;;;;;1.10;0.60;;;;;;;18.29;49.48;99666.19;5002459;28;20030;-69
2024/02/22 02:30:17;;;;;;;1.10;0.50;;;;;;;18.34;49.66;99671.84;5002094;28;20094;-70
2024/02/22 02:32:43;;;;;;;0.50;0.47;;;;;;;18.31;49.47;99665.06;5002435;28;20137;-70
2024/02/22 02:35:09;;;;;;;1.73;0.50;;;;;;;18.35;49.48;99665.56;5001692;28;20033;-70
2024/02/22 02:37:34;;;;;;;1.20;0.75;;;;;;;18.31;49.57;99654.50;4984951;28;20065;-69
2024/02/22 02:40:00;;;;;;;1.98;0.70;;;;;;;18.30;49.49;99650.22;5002070;28;20435;-70
2024/02/22 02:42:25;;;;;;;1.40;0.60;;;;;;;18.25;49.56;99644.59;5000866;28;20038;-70
2024/02/22 02:44:50;;;;;;;0.90;0.50;;;;;;;18.18;49.84;99617.16;5002092;28;20112;-70
2024/02/22 02:47:16;;;;;;;1.65;0.50;;;;;;;18.29;49.62;99630.13;5001225;28;20392;-70
2024/02/22 02:49:41;;;;;;;1.75;0.68;;;;;;;18.31;49.37;99630.78;5001403;28;20065;-69
2024/02/22 02:52:06;;;;;;;0.98;0.50;;;;;;;18.29;49.52;99626.63;5002187;28;20033;-70
2024/02/22 02:54:31;;;;;;;1.08;0.60;;;;;;;18.19;49.47;99610.91;5002145;28;21067;-70
2024/02/22 02:56:57;;;;;;;1.02;0.60;;;;;;;18.30;49.67;99641.47;5000416;28;20034;-69
2024/02/22 02:59:22;;;;;;;1.63;0.57;;;;;;;18.28;49.61;99627.63;5002295;28;20517;-69
2024/02/22 03:01:48;;;;;;;0.93;0.60;;;;;;;18.28;49.56;99636.34;4999761;28;20041;-70
2024/02/22 03:04:18;;;;;;;1.67;0.70;;;;;;;18.18;49.69;99609.25;5000100;28;20045;-70
2024/02/22 03:06:47;;;;;;;1.20;0.55;;;;;;;18.23;49.61;99619.34;5000023;28;20030;-70
2024/02/22 03:09:12;;;;;;;1.65;0.70;;;;;;;18.25;49.69;99620.03;5001775;28;20041;-70
2024/02/22 03:11:37;;;;;;;1.63;0.68;;;;;;;18.22;49.27;99617.69;5001141;28;20029;-69
2024/02/22 03:14:03;;;;;;;2.85;0.85;;;;;;;18.21;49.85;99618.66;4984038;28;20048;-70
2024/02/22 03:16:29;;;;;;;1.30;0.75;;;;;;;18.24;49.43;99619.19;5001964;28;20030;-70
2024/02/22 03:18:54;;;;;;;0.95;0.63;;;;;;;18.13;49.67;99607.09;4999823;28;20054;-69
2024/02/22 03:21:20;;;;;;;1.42;0.70;;;;;;;18.16;49.62;99608.59;5001782;28;20076;-70
2024/02/22 03:23:46;;;;;;;1.83;0.75;;;;;;;18.23;49.84;99617.53;5001474;28;20025;-69
2024/02/22 03:26:11;;;;;;;1.95;0.70;;;;;;;18.24;49.75;99611.28;5000146;28;20339;-70
2024/02/22 03:28:37;;;;;;;2.50;0.90;;;;;;;18.12;50.02;99588.81;5000962;28;20029;-69
2024/02/22 03:31:02;;;;;;;1.70;0.60;;;;;;;18.19;49.49;99596.91;5001198;28;20045;-70
2024/02/22 03:33:28;;;;;;;1.38;0.60;;;;;;;18.16;49.75;99591.94;5000906;28;20026;-69
2024/02/22 03:35:55;;;;;;;2.00;0.63;;;;;;;18.24;49.71;99608.63;4999042;28;20023;-70
2024/02/22 03:38:20;;;;;;;1.60;0.65;;;;;;;18.24;49.70;99602.53;5001235;28;20080;-70
2024/02/22 03:40:45;;;;;;;2.03;0.60;;;;;;;18.13;49.58;99575.47;4999681;28;20499;-70
2024/02/22 03:43:11;;;;;;;1.55;0.70;;;;;;;18.20;49.63;99582.72;5000730;28;20034;-70
2024/02/22 03:45:36;;;;;;;2.00;0.70;;;;;;;18.12;49.80;99568.53;5000712;28;20029;-69
2024/02/22 03:48:01;;;;;;;2.60;0.80;;;;;;;18.10;49.89;99553.81;5001102;28;20080;-70
2024/02/22 03:50:27;;;;;;;4.82;1.52;;;;;;;18.12;49.51;99557.97;5001016;28;20314;-70
2024/02/22 03:52:54;;;;;;;1.05;0.68;;;;;;;18.03;49.43;99545.72;4999834;28;20668;-70
2024/02/22 03:55:19;;;;;;;3.70;1.00;;;;;;;18.18;49.63;99569.69;5001385;28;20084;-70
2024/02/22 03:57:45;;;;;;;2.85;0.90;;;;;;;18.07;49.62;99547.06;5000686;28;20037;-70
2024/02/22 04:00:11;;;;;;;1.90;0.80;;;;;;;18.18;49.59;99559.16;5000076;28;20107;-70
2024/02/22 04:02:37;;;;;;;1.95;0.90;;;;;;;18.16;49.84;99562.94;4998658;28;20087;-70
2024/02/22 04:05:03;;;;;;;2.95;0.90;;;;;;;18.21;49.65;99573.84;4982841;28;20030;-70
2024/02/22 04:07:29;;;;;;;2.42;0.90;;;;;;;18.07;49.63;99551.50;4999599;28;20109;-70
2024/02/22 04:09:54;;;;;;;1.70;0.80;;;;;;;18.09;49.42;99550.38;5000768;28;20534;-69
2024/02/22 04:12:19;;;;;;;1.83;0.90;;;;;;;18.09;49.55;99547.75;5000902;28;20241;-69
2024/02/22 04:14:45;;;;;;;2.70;0.93;;;;;;;18.19;49.55;99558.16;5000180;28;20033;-70
2024/02/22 04:17:10;;;;;;;2.00;0.93;;;;;;;18.09;49.79;99533.75;5000793;28;20133;-70
2024/02/22 04:19:35;;;;;;;1.90;0.65;;;;;;;18.00;49.77;99524.94;5000515;28;20117;-69
2024/02/22 04:22:00;;;;;;;2.35;0.70;;;;;;;18.05;49.61;99520.03;4999957;28;20042;-70
2024/02/22 04:24:26;;;;;;;2.30;0.77;;;;;;;18.05;49.38;99524.47;5000529;28;20041;-70
2024/02/22 04:26:51;;;;;;;2.05;0.77;;;;;;;18.15;49.93;99534.91;5000396;28;20085;-70
2024/02/22 04:29:17;;;;;;;3.85;0.80;;;;;;;18.15;49.43;99537.53;4999263;28;20464;-69
2024/02/22 04:31:46;;;;;;;1.27;0.68;;;;;;;18.06;49.59;99518.22;5000125;28;20046;-70
2024/02/22 04:34:11;;;;;;;3.05;1.00;;;;;;;18.04;49.60;99515.75;5000972;28;20062;-70
2024/02/22 04:36:39;;;;;;;1.10;0.60;;;;;;;18.00;49.66;99511.75;4999196;28;20501;-70
2024/02/22 04:39:06;;;;;;;1.77;0.80;;;;;;;18.10;49.67;99524.81;4999031;28;20029;-69
2024/02/22 04:41:32;;;;;;;1.55;0.70;;;;;;;18.07;49.60;99522.50;4982294;28;20030;-69
2024/02/22 04:43:57;;;;;;;2.75;0.80;;;;;;;18.14;49.93;99531.47;4998908;28;20092;-69
2024/02/22 04:46:22;;;;;;;3.00;1.10;;;;;;;17.93;49.65;99495.75;5000458;28;20109;-70
2024/02/22 04:48:48;;;;;;;2.10;0.70;;;;;;;18.14;49.57;99531.47;4999120;28;20041;-69
2024/02/22 04:51:14;;;;;;;2.15;0.80;;;;;;;18.08;49.52;99510.97;5000173;28;20346;-70
2024/02/22 04:53:39;;;;;;;3.25;0.82;;;;;;;18.08;49.62;99497.81;4998607;28;20172;-69
2024/02/22 04:56:05;;;;;;;3.70;1.00;;;;;;;18.13;49.50;99506.91;4999368;28;20477;-70
2024/02/22 04:58:30;;;;;;;1.40;0.80;;;;;;;18.11;49.66;99500.13;4999680;28;20037;-70
2024/02/22 05:00:56;;;;;;;3.33;0.90;;;;;;;18.03;49.49;99486.91;4999719;28;20455;-70
2024/02/22 05:03:23;;;;;;;2.53;0.77;;;;;;;17.98;49.69;99481.28;4997403;28;20038;-70
2024/02/22 05:05:48;;;;;;;1.85;0.75;;;;;;;18.02;49.59;99486.06;4998720;28;20030;-70
2024/02/22 05:08:14;;;;;;;2.05;0.60;;;;;;;18.01;49.44;99486.22;4999665;28;20488;-69
2024/02/22 05:10:39;;;;;;;1.37;0.60;;;;;;;18.01;49.39;99478.31;4999304;28;20492;-70
2024/02/22 05:13:04;;;;;;;2.22;0.70;;;;;;;18.02;49.44;99470.25;4999928;28;20267;-70
2024/02/22 05:15:30;;;;;;;3.15;0.93;;;;;;;18.09;49.69;99479.19;4999465;28;20391;-69
2024/02/22 05:17:55;;;;;;;3.13;0.77;;;;;;;17.99;49.52;99461.84;4980744;28;20057;-70
2024/02/22 05:20:21;;;;;;;2.10;0.80;;;;;;;18.05;49.43;99477.84;4999499;28;20091;-69
2024/02/22 05:22:46;;;;;;;1.38;0.88;;;;;;;17.91;49.65;99460.81;4999785;28;20092;-69
2024/02/22 05:25:11;;;;;;;2.42;0.70;;;;;;;18.01;49.64;99463.34;4999110;28;20034;-69
2024/02/22 05:27:37;;;;;;;3.03;0.90;;;;;;;18.11;49.67;99471.13;4999759;28;20034;-70
2024/02/22 05:30:03;;;;;;;2.67;0.90;;;;;;;17.94;49.54;99447.31;4999365;28;20041;-70
2024/02/22 05:32:30;;;;;;;1.92;0.75;;;;;;;18.08;49.40;99466.16;4981462;28;20034;-70
2024/02/22 05:34:55;;;;;;;3.53;1.00;;;;;;;18.09;49.45;99463.38;4981318;28;20030;-70
2024/02/22 05:37:20;;;;;;;2.15;0.90;;;;;;;17.96;49.85;99447.16;4999716;28;20040;-70
2024/02/22 05:39:46;;;;;;;2.37;0.83;;;;;;;17.99;49.39;99443.38;4998311;28;20034;-70
2024/02/22 05:42:11;;;;;;;1.85;0.80;;;;;;;18.06;49.50;99462.88;4995266;28;20263;-70
2024/02/22 05:44:37;;;;;;;2.60;0.80;;;;;;;17.94;49.50;99433.31;4996770;28;20030;-69
2024/02/22 05:47:02;;;;;;;2.28;0.80;;;;;;;17.96;49.53;99434.00;4995523;28;20033;-70
2024/02/22 05:49:27;;;;;;;1.88;0.80;;;;;;;18.03;49.57;99440.28;4996814;28;20029;-69
2024/02/22 05:51:53;;;;;;;2.05;0.80;;;;;;;18.01;49.66;99434.34;4995983;28;20249;-69
2024/02/22 05:54:21;;;;;;;2.25;0.70;;;;;;;17.95;49.40;99419.16;4996028;28;20317;-70
2024/02/22 05:56:46;;;;;;;2.55;0.80;;;;;;;17.99;49.40;99424.94;4996559;28;20487;-70
2024/02/22 05:59:11;;;;;;;2.55;0.70;;;;;;;17.93;49.59;99410.59;4999539;28;20049;-70
2024/02/22 06:01:37;;;;;;;1.80;0.80;;;;;;;17.86;49.50;99391.88;4999780;28;20033;-70
2024/02/22 06:04:03;;;;;;;2.00;0.70;;;;;;;18.02;49.23;99412.25;4999041;28;20034;-70
2024/02/22 06:06:28;;;;;;;3.30;0.95;;;;;;;17.90;49.34;99387.19;4999215;28;20034;-71
2024/02/22 06:08:54;;;;;;;2.72;0.85;;;;;;;17.91;49.33;99380.91;5000060;28;20076;-70
2024/02/22 06:11:20;;;;;;;2.17;0.82;;;;;;;17.89;49.58;99381.06;5000729;28;20076;-70
2024/02/22 06:13:46;;;;;;;2.33;1.45;;;;;;;17.94;49.71;99383.22;5000426;28;20446;-70
2024/02/22 06:16:11;;;;;;;2.60;0.93;;;;;;;17.90;49.59;99363.47;5003456;28;20041;-69
2024/02/22 06:18:36;;;;;;;3.25;0.90;;;;;;;18.00;49.10;99379.97;4984034;28;20380;-70
2024/02/22 06:21:02;;;;;;;2.30;0.80;;;;;;;18.05;49.28;99393.47;5002521;28;20042;-69
2024/02/22 06:23:28;;;;;;;2.38;0.63;;;;;;;17.98;49.18;99375.84;5001731;28;20030;-70
2024/02/22 06:25:54;;;;;;;2.35;0.88;;;;;;;17.99;49.19;99378.31;5001507;28;20030;-69
2024/02/22 06:28:20;;;;;;;2.85;0.60;;;;;;;17.97;49.21;99364.47;5001748;28;20484;-69
2024/02/22 06:30:46;;;;;;;1.40;0.65;;;;;;;18.04;49.41;99378.66;5001915;28;20496;-69
2024/02/22 06:33:12;;;;;;;2.35;0.70;;;;;;;18.14;49.27;99389.06;5002725;28;20044;-70
2024/02/22 06:35:37;;;;;;;2.40;0.80;;;;;;;18.13;49.38;99397.97;5001841;28;20030;-69
2024/02/22 06:38:03;;;;;;;2.47;0.80;;;;;;;18.05;49.37;99371.56;5002077;28;20038;-69
2024/02/22 06:40:28;;;;;;;1.50;0.60;;;;;;;18.18;49.43;99381.66;5002150;28;20033;-70
2024/02/22 06:42:54;;;;;;;2.03;0.65;;;;;;;18.10;49.34;99354.31;5002009;28;20372;-69
2024/02/22 06:45:23;;;;;;;1.85;0.70;;;;;;;18.21;49.41;99365.53;5001469;28;20030;-70
2024/02/22 06:47:49;;;;;;;1.58;0.60;;;;;;;17.95;49.34;99311.91;4983929;28;20507;-69
2024/02/22 06:50:15;;;;;;;1.73;0.68;;;;;;;18.23;49.53;99355.63;5001744;28;20091;-69
2024/02/22 06:52:41;;;;;;;2.20;0.73;;;;;;;18.29;49.48;99357.63;5002183;28;20030;-69
2024/02/22 06:55:07;;;;;;;2.00;0.70;;;;;;;18.24;49.44;99344.09;4984120;28;20030;-69
2024/02/22 06:57:32;;;;;;;0.45;0.30;;;;;;;18.21;49.52;99332.06;5000957;28;20034;-70
2024/02/22 06:59:58;;;;;;;1.88;0.60;;;;;;;18.29;49.10;99334.75;5001936;28;20038;-69
2024/02/22 07:02:24;;;;;;;2.03;0.68;;;;;;;18.21;49.10;99318.88;4982071;28;20041;-70
2024/02/22 07:04:49;;;;;;;1.17;0.50;;;;;;;18.33;49.39;99329.16;5001593;28;20120;-69
2024/02/22 07:07:15;;;;;;;3.03;0.70;;;;;;;18.32;49.18;99325.66;5001255;28;20407;-68
2024/02/22 07:09:41;;;;;;;1.58;0.50;;;;;;;18.28;49.24;99304.06;5001024;28;20040;-69
2024/02/22 07:12:07;;;;;;;1.00;0.47;;;;;;;18.27;49.25;99297.13;5001884;28;20040;-69
2024/02/22 07:14:33;;;;;;;1.30;0.60;;;;;;;18.25;49.31;99285.13;5001650;28;20080;-69
2024/02/22 07:16:58;;;;;;;1.10;0.45;;;;;;;18.29;49.14;99281.16;5000571;28;20569;-70
2024/02/22 07:19:23;;;;;;;1.80;0.60;;;;;;;18.36;49.40;99284.78;5001732;28;20088;-69
2024/02/22 07:21:49;;;;;;;1.75;0.55;;;;;;;18.26;49.07;99274.41;5002306;28;20070;-70
2024/02/22 07:24:14;;;;;;;1.65;0.60;;;;;;;18.37;49.20;99291.69;4983218;28;20197;-70
2024/02/22 07:26:39;;;;;;;2.22;0.52;;;;;;;18.33;49.03;99284.31;5001236;28;20454;-70
2024/02/22 07:29:05;;;;;;;2.30;0.57;;;;;;;18.31;49.14;99276.56;5001151;28;20065;-69
2024/02/22 07:31:30;;;;;;;1.88;0.60;;;;;;;18.20;49.12;99259.22;5001223;28;20373;-70
2024/02/22 07:33:55;;;;;;;1.13;0.60;;;;;;;18.39;48.80;99288.91;5000525;28;20034;-70
2024/02/22 07:36:21;;;;;;;1.10;0.50;;;;;;;18.23;49.17;99271.25;5001263;28;20033;-70
2024/02/22 07:38:47;;;;;;;1.25;0.50;;;;;;;18.28;49.03;99280.34;5000007;28;20033;-70
2024/02/22 07:41:15;;;;;;;1.00;0.50;;;;;;;18.29;49.17;99281.16;4983691;28;20065;-70
2024/02/22 07:43:45;;;;;;;1.20;0.60;;;;;;;18.27;48.85;99273.41;5000814;28;20080;-69
2024/02/22 07:46:11;;;;;;;1.33;0.43;;;;;;;18.41;49.13;99282.47;5001177;28;20034;-69
2024/02/22 07:48:41;;;;;;;1.42;0.50;;;;;;;18.39;49.14;99275.72;5000763;28;20040;-71
2024/02/22 07:51:08;;;;;;;1.25;0.50;;;;;;;18.38;49.09;99272.25;4983029;28;20068;-70
2024/02/22 07:53:34;;;;;;;1.40;0.63;;;;;;;18.35;49.23;99254.13;5000589;28;20049;-70
2024/02/22 07:56:11;;;;;;;4.57;1.40;;;;;;;18.42;49.34;99255.13;4998367;28;20583;-72
2024/02/22 07:58:51;;;;;;;1.02;0.57;;;;;;;18.39;49.41;99250.19;5000751;28;20420;-70
2024/02/22 08:01:17;;;;;;;2.25;0.50;;;;;;;18.33;49.61;99234.19;4995439;28;20100;-71
2024/02/22 08:03:43;;;;;;;1.25;0.60;;;;;;;18.24;49.56;99210.44;4998694;28;20046;-71
2024/02/22 08:06:13;;;;;;;1.88;0.63;;;;;;;18.38;49.64;99218.69;4982640;28;20037;-71
2024/02/22 08:08:39;;;;;;;1.25;0.57;;;;;;;18.31;49.59;99197.44;5000305;28;20076;-71
2024/02/22 08:11:06;;;;;;;1.35;0.60;;;;;;;18.31;49.73;99192.16;5000398;28;20030;-70
2024/02/22 08:13:31;;;;;;;2.78;0.65;;;;;;;18.39;50.12;99194.78;5000120;28;20155;-71
2024/02/22 08:16:07;;;;;;;2.83;0.70;;;;;;;18.33;49.93;99177.00;4982902;28;20057;-71
2024/02/22 08:18:33;;;;;;;3.05;0.60;;;;;;;18.28;50.13;99156.41;5000306;28;20141;-70
2024/02/22 08:20:58;;;;;;;1.65;0.60;;;;;;;18.42;50.42;99169.88;4998738;28;20434;-71
2024/02/22 08:23:24;;;;;;;1.70;0.68;;;;;;;18.31;50.43;99137.59;5000440;28;20348;-73
2024/02/22 08:25:49;;;;;;;1.63;0.60;;;;;;;18.32;50.41;99133.13;5000750;28;20116;-70
2024/02/22 08:28:15;;;;;;;2.00;0.80;;;;;;;18.45;50.27;99144.00;4999068;28;20712;-71
2024/02/22 08:30:41;;;;;;;2.97;0.80;;;;;;;18.46;50.50;99143.00;5000260;28;20044;-71
2024/02/22 08:33:06;;;;;;;1.85;0.80;;;;;;;18.36;50.58;99117.78;4981208;28;20116;-71
2024/02/22 08:35:31;;;;;;;1.25;0.65;;;;;;;18.46;50.77;99126.38;4996877;28;20041;-70
2024/02/22 08:37:56;;;;;;;1.02;0.50;;;;;;;18.38;50.82;99111.38;4999244;28;20068;-70
2024/02/22 08:40:22;;;;;;;3.47;0.57;;;;;;;18.40;50.72;99106.75;5000592;28;20168;-70
2024/02/22 08:42:47;;;;;;;2.10;0.55;;;;;;;18.35;50.74;99095.88;4998722;28;20121;-70
2024/02/22 08:45:14;;;;;;;1.90;0.88;;;;;;;18.47;51.00;99113.00;5000831;28;20045;-71
2024/02/22 08:47:42;;;;;;;1.90;0.70;;;;;;;18.47;50.98;99105.09;4999637;28;20391;-70
2024/02/22 08:50:09;;;;;;;1.50;0.60;;;;;;;18.39;50.90;99096.38;4999857;28;20048;-70
2024/02/22 08:52:36;;;;;;;1.52;0.70;;;;;;;18.38;50.98;99087.63;4998628;28;20033;-70
2024/02/22 08:55:02;;;;;;;2.45;0.77;;;;;;;18.42;51.28;99088.97;4999174;28;20037;-70
2024/02/22 08:57:27;;;;;;;1.67;0.70;;;;;;;18.40;51.00;99072.47;5000129;28;20611;-69
2024/02/22 08:59:53;;;;;;;2.53;0.70;;;;;;;18.34;51.12;99053.84;4999925;28;20073;-70
2024/02/22 09:02:18;;;;;;;2.03;0.63;;;;;;;18.41;51.20;99066.19;4997759;28;20060;-70
2024/02/22 09:04:44;;;;;;;3.25;0.68;;;;;;;18.40;51.15;99061.91;4999579;28;20030;-70
2024/02/22 09:07:14;;;;;;;2.35;0.60;;;;;;;18.46;51.43;99053.31;4995172;28;20025;-70
2024/02/22 09:09:40;;;;;;;2.45;0.75;;;;;;;18.52;51.38;99053.63;4996518;28;20034;-69
2024/02/22 09:12:06;;;;;;;4.57;1.20;;;;;;;18.58;51.80;99045.03;4997972;28;20068;-68
2024/02/22 09:14:32;;;;;;;3.70;1.25;;;;;;;18.59;52.02;99030.88;4997649;28;20034;-68
2024/02/22 09:16:57;;;;;;;7.28;1.65;;;;;;;18.63;52.34;99040.91;4979326;28;20478;-68
2024/02/22 09:19:25;;;;;;;6.07;1.48;;;;;;;18.56;52.23;99037.28;5000380;28;20117;-68
2024/02/22 09:21:51;;;;;;;5.22;1.33;;;;;;;18.54;52.73;99017.38;4993518;28;20061;-70
2024/02/22 09:24:16;;;;;;;4.80;1.50;;;;;;;18.62;52.73;99007.59;4997521;28;20029;-71
2024/02/22 09:26:41;;;;;;;6.05;1.83;;;;;;;18.64;52.74;99007.41;4997038;28;20511;-73
2024/02/22 09:29:07;;;;;;;5.68;1.30;;;;;;;18.61;52.63;98998.06;4997536;28;20587;-71
2024/02/22 09:31:32;;;;;;;3.65;1.23;;;;;;;18.56;53.19;98978.44;4997775;28;20518;-71
2024/02/22 09:34:00;;;;;;;5.43;1.55;;;;;;;18.68;52.59;98982.34;4997391;28;20030;-71
2024/02/22 09:36:25;;;;;;;7.13;1.85;;;;;;;18.66;52.58;98976.44;4998533;28;20549;-70
2024/02/22 09:38:52;;;;;;;6.68;1.48;;;;;;;18.62;52.80;98956.66;4997017;28;20041;-71
2024/02/22 09:41:18;;;;;;;5.88;1.70;;;;;;;18.71;52.85;98955.63;4998891;28;20030;-68
2024/02/22 09:43:43;;;;;;;5.03;1.60;;;;;;;18.68;52.45;98942.75;4927238;28;20053;-68
2024/02/22 09:46:11;;;;;;;6.70;1.40;;;;;;;18.62;52.62;98931.06;4995874;28;20041;-72
2024/02/22 09:48:36;;;;;;;5.10;1.40;;;;;;;18.52;52.76;98903.25;4997835;28;20495;-71
2024/02/22 09:51:04;;;;;;;5.30;1.63;;;;;;;18.68;52.72;98925.09;4996748;28;20038;-71
2024/02/22 09:53:29;;;;;;;4.45;1.40;;;;;;;18.71;52.91;98917.81;4996647;28;20030;-70
2024/02/22 09:55:55;;;;;;;4.50;1.33;;;;;;;18.56;52.57;98894.84;4997360;28;20064;-68
2024/02/22 09:58:21;;;;;;;4.15;1.20;;;;;;;18.59;52.63;98878.66;4992993;28;20510;-68
2024/02/22 10:00:47;;;;;;;6.40;1.40;;;;;;;18.54;52.45;98859.09;4994512;28;20030;-69
2024/02/22 10:03:12;;;;;;;4.97;1.25;;;;;;;18.59;52.81;98864.66;4994801;28;20061;-74
2024/02/22 10:05:38;;;;;;;4.40;1.15;;;;;;;18.52;52.90;98866.34;4997064;28;20041;-73
2024/02/22 10:08:13;;;;;;;3.25;1.10;;;;;;;18.65;52.95;98880.59;4997781;28;20066;-72
2024/02/22 10:10:40;;;;;;;2.95;1.00;;;;;;;18.65;52.46;98874.50;4998040;28;20034;-72
2024/02/22 10:13:05;;;;;;;4.13;1.02;;;;;;;18.68;52.92;98874.97;4996770;28;20088;-74
2024/02/22 10:15:32;;;;;;;3.38;0.98;;;;;;;18.61;52.69;98860.00;4997995;28;20026;-69
2024/02/22 10:17:57;;;;;;;5.03;1.10;;;;;;;18.57;52.64;98850.84;4997489;28;20050;-70
2024/02/22 10:20:32;;;;;;;2.83;0.90;;;;;;;18.58;52.57;98855.94;4979334;28;20080;-72
2024/02/22 10:23:05;;;;;;;4.88;1.15;;;;;;;18.69;52.75;98867.88;4997224;28;20030;-73
2024/02/22 10:25:31;;;;;;;5.93;1.30;;;;;;;18.63;52.81;98861.50;4997120;28;20034;-72
2024/02/22 10:27:56;;;;;;;4.18;1.10;;;;;;;18.68;52.84;98858.34;4997508;28;20116;-68
2024/02/22 10:30:26;;;;;;;3.70;1.05;;;;;;;18.62;52.77;98848.47;4997752;28;20605;-71
2024/02/22 10:32:55;;;;;;;3.30;0.95;;;;;;;18.71;52.74;98846.59;4998093;28;20379;-72
2024/02/22 10:35:23;;;;;;;4.00;1.13;;;;;;;18.70;52.77;98834.41;4997238;28;20038;-72
2024/02/22 10:37:51;;;;;;;3.65;1.00;;;;;;;18.67;52.75;98817.94;4997610;28;20824;-72
2024/02/22 10:40:18;;;;;;;5.13;1.00;;;;;;;18.69;52.79;98804.53;4996205;28;20522;-70
2024/02/22 10:42:44;;;;;;;3.95;0.80;;;;;;;18.71;52.69;98804.38;4996985;28;20360;-71
2024/02/22 10:45:09;;;;;;;3.15;0.90;;;;;;;18.67;52.83;98796.84;5000702;28;20068;-69
2024/02/22 10:47:38;;;;;;;4.15;0.90;;;;;;;18.69;52.65;98788.72;4999381;28;20112;-72
2024/02/22 10:50:05;;;;;;;3.40;0.80;;;;;;;18.59;52.68;98761.78;5000559;28;20034;-69
2024/02/22 10:52:41;;;;;;;3.28;0.80;;;;;;;18.59;52.57;98759.94;5000434;28;20042;-70
2024/02/22 10:55:15;;;;;;;3.33;1.17;;;;;;;18.56;52.50;98739.19;4999876;28;20970;-69
2024/02/22 10:57:47;;;;;;;2.92;1.00;;;;;;;18.65;52.61;98739.97;5000104;28;20041;-69
2024/02/22 11:00:14;;;;;;;3.42;0.63;;;;;;;18.59;52.53;98712.47;5000403;28;20678;-69
2024/02/22 11:02:41;;;;;;;1.92;0.75;;;;;;;18.58;52.20;98713.47;4998535;28;20046;-69
2024/02/22 11:05:11;;;;;;;3.38;1.00;;;;;;;18.49;52.44;98696.09;4983788;28;20026;-69
2024/02/22 11:07:43;;;;;;;3.67;1.00;;;;;;;18.59;52.42;98720.38;5001108;28;20030;-69
2024/02/22 11:10:12;;;;;;;2.90;0.93;;;;;;;18.56;52.62;98715.47;5001211;28;20121;-69
2024/02/22 11:12:42;;;;;;;1.90;0.60;;;;;;;18.57;52.71;98708.38;5001749;28;20040;-69
2024/02/22 11:15:10;;;;;;;4.95;1.33;;;;;;;18.49;52.53;98688.16;5001105;28;20034;-69
2024/02/22 11:17:36;;;;;;;2.67;0.77;;;;;;;18.60;52.37;98705.38;4999305;28;20049;-70
2024/02/22 11:20:08;;;;;;;3.92;0.70;;;;;;;18.64;52.71;98704.00;4992162;28;20528;-72
2024/02/22 11:22:35;;;;;;;2.47;0.70;;;;;;;18.61;52.76;98691.19;4997925;28;20069;-71
2024/02/22 11:25:07;;;;;;;2.25;0.70;;;;;;;18.52;52.71;98671.16;4999420;28;20065;-71
2024/02/22 11:27:33;;;;;;;3.38;0.98;;;;;;;18.47;52.75;98656.69;4999380;28;20042;-72
2024/02/22 11:30:01;;;;;;;2.58;0.80;;;;;;;18.49;52.85;98652.06;4998648;28;20123;-72